Time,TemperatureF,DewpointF,PressureIn,WindDirection,WindDirectionDegrees,WindSpeedMPH,WindSpeedGustMPH,Humidity,HourlyPrecipIn,Conditions,Clouds,dailyrainin,SoftwareType,DateUTC
2013-04-03 00:02:00,35.0,34.0,-100.00,NNW,335,7.0,9.0,93,-99.99,,,-99.99,,2013-04-03 06:02:00,
2013-04-03 00:12:00,35.0,34.0,-100.00,NNW,340,8.0,9.0,94,-99.99,,,-99.99,,2013-04-03 06:12:00,
2013-04-03 00:22:00,35.0,34.0,-100.00,NNW,345,9.0,12.0,95,-99.99,,,-99.99,,2013-04-03 06:22:00,
2013-04-03 00:32:00,36.0,35.0,-100.00,NNW,345,9.0,12.0,96,-99.99,,,-99.99,,2013-04-03 06:32:00,
2013-04-03 00:42:00,36.0,35.0,-100.00,NNW,345,11.0,14.0,96,-99.99,,,-99.99,,2013-04-03 06:42:00,
2013-04-03 00:52:00,36.0,35.0,-100.00,NNW,345,13.0,16.0,96,-99.99,,,-99.99,,2013-04-03 06:52:00,
2013-04-03 01:02:00,35.0,34.0,-100.00,NNW,345,12.0,15.0,96,-99.99,,,-99.99,,2013-04-03 07:02:00,
2013-04-03 01:12:00,35.0,34.0,-100.00,NNW,345,13.0,16.0,96,-99.99,,,-99.99,,2013-04-03 07:12:00,
2013-04-03 01:23:00,35.0,34.0,-100.00,North,350,12.0,16.0,97,-99.99,,,-99.99,,2013-04-03 07:23:00,
2013-04-03 01:32:00,35.0,34.0,-100.00,North,350,11.0,16.0,97,-99.99,,,-99.99,,2013-04-03 07:32:00,
2013-04-03 01:42:00,35.0,34.0,-100.00,North,350,11.0,15.0,97,-99.99,,,-99.99,,2013-04-03 07:42:00,
2013-04-03 01:52:00,35.0,34.0,-100.00,NNW,345,12.0,16.0,96,-99.99,,,-99.99,,2013-04-03 07:52:00,
2013-04-03 02:03:00,35.0,34.0,-100.00,NNW,340,14.0,18.0,95,-99.99,,,-99.99,,2013-04-03 08:03:00,
2013-04-03 02:12:00,35.0,33.0,-100.00,NNW,335,14.0,18.0,93,-99.99,,,-99.99,,2013-04-03 08:12:00,
2013-04-03 02:22:00,35.0,33.0,-100.00,NNW,335,12.0,18.0,92,-99.99,,,-99.99,,2013-04-03 08:22:00,
2013-04-03 02:32:00,35.0,33.0,-100.00,NNW,330,12.0,17.0,92,-99.99,,,-99.99,,2013-04-03 08:32:00,
2013-04-03 02:42:00,35.0,33.0,-100.00,NW,325,16.0,19.0,91,-99.99,,,-99.99,,2013-04-03 08:42:00,
2013-04-03 02:52:00,35.0,33.0,-100.00,NW,325,13.0,21.0,91,-99.99,,,-99.99,,2013-04-03 08:52:00,
2013-04-03 03:02:00,35.0,33.0,-100.00,NW,325,12.0,17.0,91,-99.99,,,-99.99,,2013-04-03 09:02:00,
2013-04-03 03:12:00,35.0,33.0,-100.00,NW,325,12.0,17.0,91,-99.99,,,-99.99,,2013-04-03 09:12:00,
2013-04-03 03:22:00,35.0,33.0,-100.00,NW,325,16.0,21.0,91,-99.99,,,-99.99,,2013-04-03 09:22:00,
2013-04-03 03:33:00,34.0,32.0,-100.00,NNW,330,14.0,21.0,92,-99.99,,,-99.99,,2013-04-03 09:33:00,
2013-04-03 03:43:00,34.0,32.0,-100.00,NNW,330,14.0,21.0,92,-99.99,,,-99.99,,2013-04-03 09:43:00,
2013-04-03 03:53:00,34.0,32.0,-100.00,NNW,330,14.0,21.0,92,-99.99,,,-99.99,,2013-04-03 09:53:00,
2013-04-03 04:03:00,34.0,33.0,-100.00,NNW,340,14.0,20.0,94,-99.99,,,-99.99,,2013-04-03 10:03:00,
2013-04-03 04:12:00,34.0,33.0,-100.00,NNW,340,13.0,19.0,94,-99.99,,,-99.99,,2013-04-03 10:12:00,
2013-04-03 04:22:00,34.0,33.0,-100.00,NNW,335,19.0,23.0,93,-99.99,,,-99.99,,2013-04-03 10:22:00,
2013-04-03 04:33:00,34.0,32.0,-100.00,NNW,330,17.0,23.0,92,-99.99,,,-99.99,,2013-04-03 10:33:00,
2013-04-03 04:43:00,34.0,32.0,-100.00,NNW,335,16.0,20.0,93,-99.99,,,-99.99,,2013-04-03 10:43:00,
2013-04-03 04:52:00,34.0,32.0,-100.00,NNW,335,12.0,18.0,93,-99.99,,,-99.99,,2013-04-03 10:52:00,
2013-04-03 05:02:00,34.0,32.0,-100.00,NNW,335,15.0,19.0,93,-99.99,,,-99.99,,2013-04-03 11:02:00,
2013-04-03 05:12:00,34.0,32.0,-100.00,NNW,335,13.0,17.0,93,-99.99,,,-99.99,,2013-04-03 11:12:00,
2013-04-03 05:22:00,34.0,32.0,-100.00,NNW,335,13.0,17.0,93,-99.99,,,-99.99,,2013-04-03 11:22:00,
2013-04-03 05:32:00,34.0,32.0,-100.00,NNW,330,10.0,16.0,92,-99.99,,,-99.99,,2013-04-03 11:32:00,
2013-04-03 05:42:00,34.0,32.0,-100.00,NNW,330,11.0,14.0,92,-99.99,,,-99.99,,2013-04-03 11:42:00,
2013-04-03 05:52:00,34.0,32.0,-100.00,NW,325,11.0,13.0,91,-99.99,,,-99.99,,2013-04-03 11:52:00,
2013-04-03 06:02:00,34.0,32.0,-100.00,NW,325,11.0,14.0,91,-99.99,,,-99.99,,2013-04-03 12:02:00,
2013-04-03 06:13:00,34.0,32.0,-100.00,NW,325,11.0,13.0,91,-99.99,,,-99.99,,2013-04-03 12:13:00,
2013-04-03 06:22:00,34.0,31.0,-100.00,NW,325,11.0,16.0,90,-99.99,,,-99.99,,2013-04-03 12:22:00,
2013-04-03 06:32:00,34.0,31.0,-100.00,NW,325,11.0,15.0,90,-99.99,,,-99.99,,2013-04-03 12:32:00,
2013-04-03 06:42:00,34.0,31.0,-100.00,NW,320,11.0,17.0,90,-99.99,,,-99.99,,2013-04-03 12:42:00,
2013-04-03 06:52:00,34.0,31.0,-100.00,NW,320,12.0,16.0,89,-99.99,,,-99.99,,2013-04-03 12:52:00,
2013-04-03 07:02:00,34.0,31.0,-100.00,NW,320,12.0,16.0,90,-99.99,,,-99.99,,2013-04-03 13:02:00,
2013-04-03 07:12:00,34.0,31.0,-100.00,NW,320,12.0,16.0,90,-99.99,,,-99.99,,2013-04-03 13:12:00,
2013-04-03 07:22:00,35.0,32.0,-100.00,NW,320,11.0,14.0,90,-99.99,,,-99.99,,2013-04-03 13:22:00,
2013-04-03 07:32:00,35.0,32.0,-100.00,NW,315,11.0,17.0,89,-99.99,,,-99.99,,2013-04-03 13:32:00,
2013-04-03 07:42:00,35.0,32.0,-100.00,NW,315,11.0,17.0,88,-99.99,,,-99.99,,2013-04-03 13:42:00,
2013-04-03 07:52:00,36.0,32.0,-100.00,NW,310,12.0,16.0,86,-99.99,,,-99.99,,2013-04-03 13:52:00,
2013-04-03 08:02:00,36.0,32.0,-100.00,WNW,300,12.0,16.0,85,-99.99,,,-99.99,,2013-04-03 14:02:00,
2013-04-03 08:12:00,37.0,32.0,-100.00,WNW,290,14.0,18.0,82,-99.99,,,-99.99,,2013-04-03 14:12:00,
2013-04-03 08:22:00,37.0,32.0,-100.00,West,280,17.0,21.0,79,-99.99,,,-99.99,,2013-04-03 14:22:00,
2013-04-03 08:32:00,38.0,31.0,-100.00,West,265,14.0,19.0,76,-99.99,,,-99.99,,2013-04-03 14:32:00,
2013-04-03 08:42:00,39.0,31.0,-100.00,WSW,250,16.0,22.0,72,-99.99,,,-99.99,,2013-04-03 14:42:00,
2013-04-03 08:52:00,40.0,30.0,-100.00,WSW,240,17.0,22.0,69,-99.99,,,-99.99,,2013-04-03 14:52:00,
2013-04-03 09:02:00,40.0,30.0,-100.00,SW,225,19.0,21.0,66,-99.99,,,-99.99,,2013-04-03 15:02:00,
2013-04-03 09:12:00,41.0,29.0,-100.00,SSW,205,19.0,24.0,60,-99.99,,,-99.99,,2013-04-03 15:12:00,
2013-04-03 09:23:00,42.0,29.0,-100.00,SSW,200,17.0,24.0,59,-99.99,,,-99.99,,2013-04-03 15:23:00,
2013-04-03 09:33:00,43.0,29.0,-100.00,SSW,195,16.0,21.0,58,-99.99,,,-99.99,,2013-04-03 15:33:00,
2013-04-03 09:42:00,42.0,29.0,-100.00,SSW,195,18.0,22.0,59,-99.99,,,-99.99,,2013-04-03 15:42:00,
2013-04-03 09:53:00,44.0,30.0,-100.00,South,190,17.0,22.0,57,-99.99,,,-99.99,,2013-04-03 15:53:00,
2013-04-03 10:03:00,44.0,30.0,-100.00,South,190,15.0,21.0,57,-99.99,,,-99.99,,2013-04-03 16:03:00,
2013-04-03 10:12:00,44.0,30.0,-100.00,South,190,15.0,21.0,57,-99.99,,,-99.99,,2013-04-03 16:12:00,
2013-04-03 10:24:00,44.0,30.0,-100.00,South,190,15.0,21.0,57,-99.99,,,-99.99,,2013-04-03 16:24:00,
2013-04-03 10:32:00,45.0,30.0,-100.00,South,185,16.0,24.0,55,-99.99,,,-99.99,,2013-04-03 16:32:00,
2013-04-03 10:44:00,46.0,30.0,-100.00,South,170,19.0,28.0,52,-99.99,,,-99.99,,2013-04-03 16:44:00,
2013-04-03 10:53:00,46.0,29.0,-100.00,South,170,17.0,25.0,52,-99.99,,,-99.99,,2013-04-03 16:53:00,
2013-04-03 11:03:00,46.0,29.0,-100.00,SSE,165,21.0,27.0,51,-99.99,,,-99.99,,2013-04-03 17:03:00,
2013-04-03 11:13:00,47.0,28.0,-100.00,SSE,155,21.0,29.0,48,-99.99,,,-99.99,,2013-04-03 17:13:00,
2013-04-03 11:23:00,47.0,28.0,-100.00,SSE,150,22.0,27.0,47,-99.99,,,-99.99,,2013-04-03 17:23:00,
2013-04-03 11:33:00,46.0,28.0,-100.00,SSE,150,23.0,30.0,47,-99.99,,,-99.99,,2013-04-03 17:33:00,
2013-04-03 11:45:00,48.0,28.0,-100.00,SE,145,23.0,31.0,46,-99.99,,,-99.99,,2013-04-03 17:45:00,
2013-04-03 11:53:00,48.0,28.0,-100.00,SE,140,22.0,29.0,45,-99.99,,,-99.99,,2013-04-03 17:53:00,
2013-04-03 12:02:00,47.0,27.0,-100.00,SE,140,21.0,29.0,45,-99.99,,,-99.99,,2013-04-03 18:02:00,
2013-04-03 12:13:00,49.0,28.0,-100.00,SE,135,21.0,27.0,43,-99.99,,,-99.99,,2013-04-03 18:13:00,
2013-04-03 12:22:00,49.0,28.0,-100.00,SE,140,16.0,27.0,44,-99.99,,,-99.99,,2013-04-03 18:22:00,
2013-04-03 12:33:00,49.0,28.0,-100.00,SE,130,24.0,30.0,42,-99.99,,,-99.99,,2013-04-03 18:33:00,
2013-04-03 12:43:00,50.0,29.0,-100.00,SE,135,17.0,25.0,44,-99.99,,,-99.99,,2013-04-03 18:43:00,
2013-04-03 12:52:00,49.0,29.0,-100.00,SE,140,19.0,26.0,44,-99.99,,,-99.99,,2013-04-03 18:52:00,
2013-04-03 13:03:00,50.0,28.0,-100.00,SE,130,17.0,24.0,42,-99.99,,,-99.99,,2013-04-03 19:03:00,
2013-04-03 13:12:00,50.0,28.0,-100.00,SE,130,18.0,24.0,42,-99.99,,,-99.99,,2013-04-03 19:12:00,
2013-04-03 13:22:00,51.0,29.0,-100.00,SE,130,20.0,30.0,42,-99.99,,,-99.99,,2013-04-03 19:22:00,
2013-04-03 13:32:00,50.0,28.0,-100.00,SE,125,18.0,29.0,41,-99.99,,,-99.99,,2013-04-03 19:32:00,
2013-04-03 13:42:00,51.0,29.0,-100.00,SE,130,17.0,26.0,42,-99.99,,,-99.99,,2013-04-03 19:42:00,
2013-04-03 13:52:00,51.0,29.0,-100.00,SE,125,18.0,25.0,41,-99.99,,,-99.99,,2013-04-03 19:52:00,
2013-04-03 14:02:00,52.0,29.0,-100.00,SE,130,15.0,26.0,42,-99.99,,,-99.99,,2013-04-03 20:02:00,
2013-04-03 14:12:00,52.0,30.0,-100.00,SE,130,17.0,27.0,41,-99.99,,,-99.99,,2013-04-03 20:12:00,
2013-04-03 14:23:00,53.0,30.0,-100.00,SE,130,18.0,26.0,41,-99.99,,,-99.99,,2013-04-03 20:23:00,
2013-04-03 14:32:00,53.0,30.0,-100.00,SE,125,17.0,23.0,40,-99.99,,,-99.99,,2013-04-03 20:32:00,
2013-04-03 14:42:00,54.0,31.0,-100.00,SE,125,12.0,22.0,40,-99.99,,,-99.99,,2013-04-03 20:42:00,
2013-04-03 14:52:00,54.0,30.0,-100.00,ESE,120,14.0,21.0,40,-99.99,,,-99.99,,2013-04-03 20:52:00,
2013-04-03 15:02:00,52.0,29.0,-100.00,SE,125,19.0,25.0,41,-99.99,,,-99.99,,2013-04-03 21:02:00,
2013-04-03 15:12:00,53.0,30.0,-100.00,ESE,120,20.0,24.0,40,-99.99,,,-99.99,,2013-04-03 21:12:00,
2013-04-03 15:22:00,53.0,30.0,-100.00,ESE,120,20.0,24.0,40,-99.99,,,-99.99,,2013-04-03 21:22:00,
2013-04-03 15:33:00,54.0,30.0,-100.00,ESE,120,14.0,23.0,39,-99.99,,,-99.99,,2013-04-03 21:33:00,
2013-04-03 15:42:00,54.0,30.0,-100.00,ESE,120,17.0,22.0,39,-99.99,,,-99.99,,2013-04-03 21:42:00,
2013-04-03 15:52:00,54.0,30.0,-100.00,ESE,120,18.0,22.0,40,-99.99,,,-99.99,,2013-04-03 21:52:00,
2013-04-03 16:02:00,54.0,30.0,-100.00,ESE,120,15.0,22.0,39,-99.99,,,-99.99,,2013-04-03 22:02:00,
2013-04-03 16:12:00,54.0,30.0,-100.00,ESE,120,15.0,23.0,39,-99.99,,,-99.99,,2013-04-03 22:12:00,
2013-04-03 16:22:00,53.0,30.0,-100.00,ESE,120,16.0,26.0,39,-99.99,,,-99.99,,2013-04-03 22:22:00,
2013-04-03 16:32:00,54.0,30.0,-100.00,ESE,120,14.0,23.0,39,-99.99,,,-99.99,,2013-04-03 22:32:00,
2013-04-03 16:42:00,54.0,30.0,-100.00,ESE,120,13.0,21.0,39,-99.99,,,-99.99,,2013-04-03 22:42:00,
2013-04-03 16:52:00,53.0,29.0,-100.00,ESE,120,15.0,19.0,39,-99.99,,,-99.99,,2013-04-03 22:52:00,
2013-04-03 17:02:00,54.0,30.0,-100.00,ESE,120,14.0,21.0,39,-99.99,,,-99.99,,2013-04-03 23:02:00,
2013-04-03 17:12:00,53.0,29.0,-100.00,ESE,120,17.0,22.0,39,-99.99,,,-99.99,,2013-04-03 23:12:00,
2013-04-03 17:22:00,53.0,30.0,-100.00,ESE,120,15.0,21.0,40,-99.99,,,-99.99,,2013-04-03 23:22:00,
2013-04-03 17:32:00,54.0,30.0,-100.00,ESE,120,14.0,18.0,39,-99.99,,,-99.99,,2013-04-03 23:32:00,
2013-04-03 17:42:00,53.0,29.0,-100.00,ESE,120,16.0,19.0,39,-99.99,,,-99.99,,2013-04-03 23:42:00,
2013-04-03 17:53:00,53.0,30.0,-100.00,ESE,120,14.0,19.0,40,-99.99,,,-99.99,,2013-04-03 23:53:00,
2013-04-03 18:03:00,53.0,30.0,-100.00,ESE,120,12.0,17.0,40,-99.99,,,-99.99,,2013-04-04 00:03:00,
2013-04-03 18:12:00,53.0,30.0,-100.00,SE,125,11.0,20.0,40,-99.99,,,-99.99,,2013-04-04 00:12:00,
2013-04-03 18:22:00,53.0,30.0,-100.00,SE,125,14.0,18.0,41,-99.99,,,-99.99,,2013-04-04 00:22:00,
2013-04-03 18:32:00,52.0,29.0,-100.00,SE,125,14.0,19.0,41,-99.99,,,-99.99,,2013-04-04 00:32:00,
2013-04-03 18:43:00,51.0,29.0,-100.00,SE,130,16.0,19.0,42,-99.99,,,-99.99,,2013-04-04 00:43:00,
2013-04-03 18:52:00,51.0,29.0,-100.00,SE,130,15.0,18.0,42,-99.99,,,-99.99,,2013-04-04 00:52:00,
2013-04-03 19:02:00,51.0,29.0,-100.00,SE,130,15.0,18.0,42,-99.99,,,-99.99,,2013-04-04 01:02:00,
2013-04-03 19:12:00,51.0,29.0,-100.00,SE,130,15.0,18.0,42,-99.99,,,-99.99,,2013-04-04 01:12:00,
2013-04-03 19:22:00,51.0,29.0,-100.00,SE,130,15.0,18.0,42,-99.99,,,-99.99,,2013-04-04 01:22:00,
2013-04-03 19:32:00,47.0,28.0,-100.00,SSE,150,11.0,16.0,47,-99.99,,,-99.99,,2013-04-04 01:32:00,
2013-04-03 19:43:00,46.0,28.0,-100.00,SSE,155,11.0,14.0,48,-99.99,,,-99.99,,2013-04-04 01:43:00,
2013-04-03 19:52:00,45.0,28.0,-100.00,SSE,160,12.0,15.0,50,-99.99,,,-99.99,,2013-04-04 01:52:00,
2013-04-03 20:02:00,45.0,28.0,-100.00,SSE,165,12.0,16.0,51,-99.99,,,-99.99,,2013-04-04 02:02:00,
2013-04-03 20:12:00,45.0,28.0,-100.00,SSE,165,12.0,16.0,51,-99.99,,,-99.99,,2013-04-04 02:12:00,
2013-04-03 20:22:00,44.0,28.0,-100.00,South,175,13.0,17.0,53,-99.99,,,-99.99,,2013-04-04 02:22:00,
2013-04-03 20:32:00,43.0,28.0,-100.00,South,180,14.0,17.0,54,-99.99,,,-99.99,,2013-04-04 02:32:00,
2013-04-03 20:42:00,43.0,28.0,-100.00,South,180,14.0,17.0,54,-99.99,,,-99.99,,2013-04-04 02:42:00,
2013-04-03 20:52:00,43.0,28.0,-100.00,South,180,14.0,17.0,54,-99.99,,,-99.99,,2013-04-04 02:52:00,
2013-04-03 21:02:00,42.0,28.0,-100.00,South,190,15.0,19.0,58,-99.99,,,-99.99,,2013-04-04 03:02:00,
2013-04-03 21:12:00,42.0,28.0,-100.00,SSW,195,13.0,19.0,59,-99.99,,,-99.99,,2013-04-04 03:12:00,
2013-04-03 21:22:00,41.0,29.0,-100.00,SSW,200,16.0,17.0,60,-99.99,,,-99.99,,2013-04-04 03:22:00,
2013-04-03 21:33:00,41.0,29.0,-100.00,SSW,205,12.0,17.0,61,-99.99,,,-99.99,,2013-04-04 03:33:00,
2013-04-03 21:44:00,40.0,29.0,-100.00,SSW,210,12.0,16.0,62,-99.99,,,-99.99,,2013-04-04 03:44:00,
2013-04-03 21:53:00,40.0,29.0,-100.00,SW,215,13.0,17.0,63,-99.99,,,-99.99,,2013-04-04 03:53:00,
2013-04-03 22:03:00,40.0,29.0,-100.00,SW,220,12.0,16.0,64,-99.99,,,-99.99,,2013-04-04 04:03:00,
2013-04-03 22:12:00,39.0,29.0,-100.00,SW,225,11.0,13.0,66,-99.99,,,-99.99,,2013-04-04 04:12:00,
2013-04-03 22:23:00,39.0,29.0,-100.00,SW,230,12.0,13.0,67,-99.99,,,-99.99,,2013-04-04 04:23:00,
2013-04-03 22:33:00,38.0,29.0,-100.00,SW,235,12.0,14.0,69,-99.99,,,-99.99,,2013-04-04 04:33:00,
2013-04-03 22:43:00,38.0,29.0,-100.00,WSW,240,11.0,14.0,70,-99.99,,,-99.99,,2013-04-04 04:43:00,
2013-04-03 22:52:00,37.0,29.0,-100.00,WSW,245,10.0,13.0,71,-99.99,,,-99.99,,2013-04-04 04:52:00,
2013-04-03 23:02:00,37.0,29.0,-100.00,WSW,255,10.0,12.0,73,-99.99,,,-99.99,,2013-04-04 05:02:00,
2013-04-03 23:13:00,36.0,29.0,-100.00,West,260,9.0,11.0,75,-99.99,,,-99.99,,2013-04-04 05:13:00,
2013-04-03 23:23:00,36.0,29.0,-100.00,West,265,9.0,11.0,76,-99.99,,,-99.99,,2013-04-04 05:23:00,
2013-04-03 23:32:00,35.0,29.0,-100.00,West,275,11.0,12.0,78,-99.99,,,-99.99,,2013-04-04 05:32:00,
2013-04-03 23:42:00,36.0,30.0,-100.00,West,275,11.0,13.0,78,-99.99,,,-99.99,,2013-04-04 05:42:00,
2013-04-03 23:52:00,36.0,30.0,-100.00,West,275,11.0,13.0,78,-99.99,,,-99.99,,2013-04-04 05:52:00,